createdAt,value
2018-02-09T00:00:43.350Z,134.37
2018-02-09T00:03:09.126Z,132.07
2018-02-09T00:05:34.919Z,144.80
2018-02-09T00:08:01.105Z,148.03
2018-02-09T00:10:26.931Z,149.98
2018-02-09T00:12:52.716Z,131.90
2018-02-09T00:15:18.524Z,140.97
2018-02-09T00:17:44.314Z,140.57
2018-02-09T00:20:10.106Z,127.30
2018-02-09T00:22:48.602Z,136.93
2018-02-09T00:25:14.390Z,130.18
2018-02-09T00:27:40.186Z,137.57
2018-02-09T00:30:05.991Z,141.10
2018-02-09T00:32:31.771Z,135.37
2018-02-09T00:34:57.567Z,132.50
2018-02-09T00:37:23.375Z,128.40
2018-02-09T00:39:49.202Z,133.23
2018-02-09T00:42:15.010Z,137.57
2018-02-09T00:44:41.178Z,140.20
2018-02-09T00:47:06.966Z,130.73
2018-02-09T00:49:32.763Z,131.70
2018-02-09T00:51:58.570Z,139.77
2018-02-09T00:54:24.374Z,141.33
2018-02-09T00:56:50.174Z,125.73
2018-02-09T00:59:15.988Z,144.50
2018-02-09T01:01:41.787Z,138.97
2018-02-09T01:04:07.586Z,132.50
2018-02-09T01:06:33.398Z,138.57
2018-02-09T01:08:59.185Z,136.37
2018-02-09T01:11:24.974Z,127.30
2018-02-09T01:13:50.897Z,130.10
2018-02-09T01:16:16.702Z,138.13
2018-02-09T01:18:42.487Z,152.97
2018-02-09T01:21:08.274Z,128.30
2018-02-09T01:23:34.055Z,133.47
2018-02-09T01:25:59.842Z,139.73
2018-02-09T01:28:25.645Z,145.40
2018-02-09T01:30:58.329Z,138.43
2018-02-09T01:33:24.130Z,134.12
2018-02-09T01:35:50.123Z,136.03
2018-02-09T01:38:15.906Z,147.15
2018-02-09T01:40:42.050Z,148.57
2018-02-09T01:43:07.858Z,132.52
2018-02-09T01:45:33.657Z,140.07
2018-02-09T01:47:59.446Z,145.83
2018-02-09T01:50:25.251Z,127.80
2018-02-09T01:52:51.034Z,138.83
2018-02-09T01:55:16.815Z,138.70
2018-02-09T01:57:42.805Z,143.97
2018-02-09T02:00:08.611Z,158.82
2018-02-09T02:02:34.410Z,161.67
2018-02-09T02:05:00.447Z,129.90
2018-02-09T02:07:26.228Z,143.30
2018-02-09T02:09:52.028Z,149.27
2018-02-09T02:12:17.882Z,141.23
2018-02-09T02:14:43.673Z,157.07
2018-02-09T02:17:09.454Z,141.60
2018-02-09T02:19:35.369Z,145.73
2018-02-09T02:22:01.138Z,158.40
2018-02-09T02:24:26.922Z,139.77
2018-02-09T02:26:52.729Z,154.83
2018-02-09T02:29:18.513Z,152.47
2018-02-09T02:31:44.277Z,155.17
2018-02-09T02:34:10.178Z,148.90
2018-02-09T02:36:36.006Z,152.50
2018-02-09T02:39:01.829Z,146.43
2018-02-09T02:41:27.725Z,152.57
2018-02-09T02:43:53.501Z,138.93
2018-02-09T02:46:19.269Z,145.23
2018-02-09T02:48:45.275Z,158.00
2018-02-09T02:51:11.058Z,144.82
2018-02-09T02:53:36.834Z,148.73
2018-02-09T02:56:02.645Z,160.83
2018-02-09T02:58:28.419Z,156.23
2018-02-09T03:00:54.433Z,141.17
2018-02-09T03:03:20.217Z,154.50
2018-02-09T03:05:45.998Z,150.27
2018-02-09T03:08:11.791Z,158.30
2018-02-09T03:10:37.601Z,149.70
2018-02-09T03:13:03.376Z,152.30
2018-02-09T03:15:29.417Z,137.60
2018-02-09T03:17:55.190Z,154.82
2018-02-09T03:20:21.000Z,147.30
2018-02-09T03:22:46.762Z,144.10
2018-02-09T03:25:12.573Z,157.13
2018-02-09T03:27:38.387Z,141.43
2018-02-09T03:30:04.218Z,158.33
2018-02-09T03:32:30.012Z,146.67
2018-02-09T03:34:55.794Z,147.13
2018-02-09T03:37:21.579Z,148.30
2018-02-09T03:39:47.370Z,154.13
2018-02-09T03:42:13.145Z,152.57
2018-02-09T03:44:39.292Z,145.20
2018-02-09T03:47:05.058Z,147.95
2018-02-09T03:49:30.845Z,160.20
2018-02-09T03:51:56.757Z,141.10
2018-02-09T03:54:29.502Z,145.40
2018-02-09T03:56:55.269Z,152.02
2018-02-09T03:59:21.058Z,178.47
2018-02-09T04:01:46.830Z,146.20
2018-02-09T04:04:12.599Z,153.57
2018-02-09T04:06:38.385Z,159.97
2018-02-09T04:09:04.206Z,159.60
2018-02-09T04:11:29.982Z,169.20
2018-02-09T04:13:55.769Z,145.83
2018-02-09T04:16:21.542Z,145.27
2018-02-09T04:18:47.366Z,145.50
2018-02-09T04:21:13.141Z,145.47
2018-02-09T04:23:38.914Z,165.27
2018-02-09T04:26:04.677Z,157.57
2018-02-09T04:28:30.470Z,149.57
2018-02-09T04:30:56.329Z,166.80
2018-02-09T04:33:22.105Z,139.10
2018-02-09T04:35:47.881Z,156.37
2018-02-09T04:38:13.648Z,165.60
2018-02-09T04:40:39.442Z,151.90
2018-02-09T04:43:05.216Z,161.33
2018-02-09T04:45:30.990Z,157.60
2018-02-09T04:47:56.790Z,150.67
2018-02-09T04:50:22.583Z,153.27
2018-02-09T04:52:48.373Z,161.37
2018-02-09T04:55:14.473Z,156.63
2018-02-09T04:57:40.246Z,145.20
2018-02-09T05:00:06.135Z,165.63
2018-02-09T05:02:31.921Z,154.40
2018-02-09T05:04:57.693Z,184.00
2018-02-09T05:07:23.465Z,169.30
2018-02-09T05:09:49.249Z,155.27
2018-02-09T05:12:15.018Z,185.60
2018-02-09T05:14:40.789Z,152.50
2018-02-09T05:17:06.591Z,163.63
2018-02-09T05:19:32.371Z,163.03
2018-02-09T05:21:58.150Z,165.37
2018-02-09T05:24:23.949Z,159.57
2018-02-09T05:26:49.726Z,176.00
2018-02-09T05:29:15.493Z,165.43
2018-02-09T05:31:41.314Z,162.80
2018-02-09T05:34:07.085Z,151.67
2018-02-09T05:36:32.894Z,156.47
2018-02-09T05:38:58.703Z,151.23
2018-02-09T05:41:24.476Z,157.07
2018-02-09T05:43:50.269Z,154.87
2018-02-09T05:46:16.249Z,161.43
2018-02-09T05:48:42.018Z,159.23
2018-02-09T05:51:07.806Z,154.87
2018-02-09T05:53:33.638Z,153.77
2018-02-09T05:55:59.421Z,151.37
2018-02-09T05:58:25.201Z,167.83
2018-02-09T06:00:51.061Z,160.50
2018-02-09T06:03:16.847Z,155.07
2018-02-09T06:05:42.629Z,176.10
2018-02-09T06:08:08.617Z,169.60
2018-02-09T06:10:34.394Z,167.18
2018-02-09T06:13:00.174Z,180.97
2018-02-09T06:15:25.974Z,162.57
2018-02-09T06:17:51.748Z,160.33
2018-02-09T06:20:17.981Z,140.03
2018-02-09T06:22:44.137Z,154.10
2018-02-09T06:25:09.903Z,153.00
2018-02-09T06:27:35.684Z,168.37
2018-02-09T06:30:01.493Z,168.40
2018-02-09T06:32:27.269Z,159.30
2018-02-09T06:34:53.126Z,159.20
2018-02-09T06:37:18.917Z,161.43
2018-02-09T06:39:44.724Z,156.53
2018-02-09T06:42:10.498Z,160.07
2018-02-09T06:44:36.314Z,175.47
2018-02-09T06:47:02.126Z,161.90
2018-02-09T06:49:27.906Z,179.77
2018-02-09T06:51:53.970Z,174.10
2018-02-09T06:54:19.746Z,159.40
2018-02-09T06:56:45.514Z,159.10
2018-02-09T06:59:11.372Z,179.70
2018-02-09T07:01:37.153Z,170.97
2018-02-09T07:04:02.959Z,173.03
2018-02-09T07:06:28.782Z,176.43
2018-02-09T07:08:54.557Z,178.83
2018-02-09T07:11:20.334Z,168.53
2018-02-09T07:13:46.331Z,170.30
2018-02-09T07:16:12.115Z,150.90
2018-02-09T07:18:37.901Z,163.17
2018-02-09T07:21:03.729Z,172.30
2018-02-09T07:23:29.511Z,177.07
2018-02-09T07:25:55.278Z,161.17
2018-02-09T07:28:21.087Z,150.50
2018-02-09T07:30:46.943Z,166.60
2018-02-09T07:33:19.693Z,148.30
2018-02-09T07:35:45.489Z,170.27
2018-02-09T07:38:11.282Z,144.13
2018-02-09T07:40:37.057Z,176.53
2018-02-09T07:43:02.881Z,182.00
2018-02-09T07:45:28.653Z,176.47
2018-02-09T07:47:54.444Z,160.57
2018-02-09T07:50:21.062Z,172.43
2018-02-09T07:52:46.844Z,170.37
2018-02-09T07:55:12.629Z,170.57
2018-02-09T07:57:38.490Z,183.40
2018-02-09T08:00:04.299Z,184.20
2018-02-09T08:02:30.115Z,169.40
2018-02-09T08:04:56.094Z,171.13
2018-02-09T08:07:21.869Z,176.23
2018-02-09T08:09:47.641Z,166.70
2018-02-09T08:12:13.748Z,170.73
2018-02-09T08:14:39.526Z,165.45
2018-02-09T08:17:05.313Z,165.63
2018-02-09T08:19:32.570Z,152.27
2018-02-09T08:21:58.415Z,156.40
2018-02-09T08:24:25.082Z,153.13
2018-02-09T08:26:51.119Z,157.10
2018-02-09T08:29:19.210Z,132.55
2018-02-09T08:31:45.830Z,172.52
2018-02-09T08:34:13.082Z,163.68
2018-02-09T08:36:39.617Z,163.95
2018-02-09T08:39:06.970Z,151.20
2018-02-09T08:41:32.833Z,169.43
2018-02-09T08:43:58.613Z,151.33
2018-02-09T08:46:24.386Z,168.93
2018-02-09T08:48:50.175Z,169.77
2018-02-09T08:51:15.977Z,163.43
2018-02-09T08:53:41.765Z,161.73
2018-02-09T08:56:07.577Z,152.47
2018-02-09T08:58:33.367Z,157.20
2018-02-09T09:00:59.141Z,159.27
2018-02-09T09:03:24.978Z,146.17
2018-02-09T09:05:50.778Z,161.93
2018-02-09T09:08:16.562Z,135.50
2018-02-09T09:10:42.351Z,144.33
2018-02-09T09:13:08.126Z,147.00
2018-02-09T09:15:33.922Z,121.70
2018-02-09T09:17:59.744Z,142.77
2018-02-09T09:20:25.513Z,143.53
2018-02-09T09:22:51.341Z,142.27
2018-02-09T09:25:17.143Z,138.97
2018-02-09T09:27:42.925Z,155.70
2018-02-09T09:30:08.707Z,130.30
2018-02-09T09:32:34.863Z,140.73
2018-02-09T09:35:00.652Z,150.75
2018-02-09T09:37:26.418Z,134.97
2018-02-09T09:39:52.209Z,160.67
2018-02-09T09:42:17.977Z,155.10
2018-02-09T09:44:43.809Z,147.63
2018-02-09T09:47:09.590Z,153.73
2018-02-09T09:49:35.373Z,129.87
2018-02-09T09:52:01.156Z,128.63
2018-02-09T09:54:26.964Z,136.10
2018-02-09T09:56:52.780Z,143.77
2018-02-09T09:59:18.560Z,146.63
2018-02-09T10:01:44.654Z,145.33
2018-02-09T10:04:10.443Z,162.25
2018-02-09T10:06:36.251Z,106.77
2018-02-09T10:09:02.446Z,150.17
2018-02-09T10:11:28.230Z,147.55
2018-02-09T10:13:53.997Z,138.33
2018-02-09T10:16:19.999Z,96.90
2018-02-09T10:18:45.798Z,131.50
2018-02-09T10:21:11.580Z,136.23
2018-02-09T10:23:37.426Z,143.40
2018-02-09T10:26:03.220Z,130.83
2018-02-09T10:28:28.985Z,148.23
2018-02-09T10:30:54.776Z,92.97
2018-02-09T10:33:20.618Z,137.70
2018-02-09T10:35:46.819Z,137.93
2018-02-09T10:38:12.730Z,131.30
2018-02-09T10:40:38.895Z,134.57
2018-02-09T10:43:04.654Z,131.25
2018-02-09T10:45:31.208Z,130.70
2018-02-09T10:47:57.103Z,136.50
2018-02-09T10:50:23.797Z,114.37
2018-02-09T10:52:50.013Z,146.70
2018-02-09T10:55:16.482Z,148.48
2018-02-09T10:57:42.359Z,158.20
2018-02-09T11:00:08.562Z,134.10
2018-02-09T11:02:34.350Z,136.32
2018-02-09T11:05:00.793Z,134.47
2018-02-09T11:07:26.605Z,137.88
2018-02-09T11:09:52.883Z,125.47
2018-02-09T11:12:21.298Z,134.87
2018-02-09T11:14:47.148Z,123.45
2018-02-09T11:17:13.454Z,129.27
2018-02-09T11:19:39.226Z,125.18
2018-02-09T11:22:05.036Z,125.30
2018-02-09T11:24:30.817Z,133.57
2018-02-09T11:26:56.781Z,128.73
2018-02-09T11:29:22.575Z,126.70
2018-02-09T11:31:48.347Z,125.50
2018-02-09T11:34:14.119Z,124.17
2018-02-09T11:36:39.930Z,134.93
2018-02-09T11:39:05.721Z,125.17
2018-02-09T11:41:31.518Z,112.97
2018-02-09T11:43:57.310Z,120.63
2018-02-09T11:46:23.102Z,129.40
2018-02-09T11:48:48.894Z,101.63
2018-02-09T11:51:14.687Z,115.87
2018-02-09T11:53:40.662Z,129.13
2018-02-09T11:56:06.446Z,124.00
2018-02-09T11:58:32.515Z,118.00
2018-02-09T12:00:58.790Z,119.10
2018-02-09T12:03:25.117Z,117.60
2018-02-09T12:05:50.906Z,121.28
2018-02-09T12:08:17.001Z,112.80
2018-02-09T12:10:42.795Z,117.03
2018-02-09T12:13:08.706Z,110.20
2018-02-09T12:15:34.532Z,116.60
2018-02-09T12:18:00.356Z,115.37
2018-02-09T12:20:26.151Z,116.47
2018-02-09T12:22:51.933Z,108.20
2018-02-09T12:25:17.740Z,97.37
2018-02-09T12:27:43.536Z,113.87
2018-02-09T12:30:09.318Z,104.53
2018-02-09T12:32:35.516Z,107.10
2018-02-09T12:35:01.607Z,96.12
2018-02-09T12:37:27.391Z,94.70
2018-02-09T12:39:53.189Z,98.77
2018-02-09T12:42:18.976Z,98.50
2018-02-09T12:44:44.762Z,104.57
2018-02-09T12:47:10.578Z,86.83
2018-02-09T12:49:36.353Z,96.57
2018-02-09T12:52:02.134Z,92.37
2018-02-09T12:54:27.942Z,98.37
2018-02-09T12:56:53.753Z,97.43
2018-02-09T12:59:19.536Z,95.83
2018-02-09T13:01:45.347Z,97.77
2018-02-09T13:04:11.139Z,101.33
2018-02-09T13:06:36.919Z,107.03
2018-02-09T13:09:02.776Z,104.70
2018-02-09T13:11:28.558Z,113.10
2018-02-09T13:13:54.325Z,102.77
2018-02-09T13:16:20.133Z,103.93
2018-02-09T13:18:47.822Z,103.60
2018-02-09T13:21:13.614Z,102.13
2018-02-09T13:23:51.867Z,94.17
2018-02-09T13:26:17.659Z,102.57
2018-02-09T13:28:55.966Z,93.23
2018-02-09T13:31:21.759Z,95.33
2018-02-09T13:33:47.543Z,93.83
2018-02-09T13:36:14.239Z,103.80
2018-02-09T13:38:40.031Z,95.73
2018-02-09T13:41:05.810Z,98.10
2018-02-09T13:43:31.694Z,108.53
2018-02-09T13:45:57.470Z,105.70
2018-02-09T13:48:30.200Z,99.37
2018-02-09T13:50:56.031Z,107.80
2018-02-09T13:53:21.807Z,103.03
2018-02-09T13:55:47.590Z,103.27
2018-02-09T13:58:13.482Z,102.73
2018-02-09T14:00:39.271Z,100.23
2018-02-09T14:05:37.714Z,106.30
2018-02-09T14:08:03.494Z,100.23
2018-02-09T14:10:29.274Z,97.13
2018-02-09T14:12:55.970Z,97.73
2018-02-09T14:15:21.770Z,88.80
2018-02-09T14:17:47.538Z,97.63
2018-02-09T14:20:13.339Z,98.67
2018-02-09T14:22:39.172Z,98.93
2018-02-09T14:25:04.925Z,103.47
2018-02-09T14:27:30.718Z,114.63
2018-02-09T14:29:56.498Z,106.87
2018-02-09T14:32:22.280Z,111.73
2018-02-09T14:34:48.111Z,107.23
2018-02-09T14:37:13.894Z,104.93
2018-02-09T14:39:39.680Z,106.43
2018-02-09T14:42:05.462Z,109.63
2018-02-09T14:44:31.250Z,122.60
2018-02-09T14:46:57.055Z,111.67
2018-02-09T14:49:22.883Z,107.33
2018-02-09T14:51:48.630Z,107.47
2018-02-09T14:54:14.437Z,115.20
2018-02-09T14:56:40.214Z,104.67
2018-02-09T14:59:12.948Z,101.60
2018-02-09T15:01:38.754Z,112.00
2018-02-09T15:04:04.529Z,108.10
2018-02-09T15:06:30.298Z,114.13
2018-02-09T15:08:56.109Z,114.80
2018-02-09T15:11:21.902Z,114.20
2018-02-09T15:13:47.685Z,115.40
2018-02-09T15:16:13.491Z,108.33
2018-02-09T15:18:39.323Z,108.93
2018-02-09T15:21:05.130Z,244.23
2018-02-09T15:23:31.186Z,290.73
2018-02-09T15:25:56.978Z,184.93
2018-02-09T15:28:22.782Z,169.83
2018-02-09T15:30:48.607Z,121.33
2018-02-09T15:33:14.405Z,122.13
2018-02-09T15:35:40.202Z,132.10
2018-02-09T15:38:06.021Z,104.63
2018-02-09T15:40:31.803Z,122.07
2018-02-09T15:42:57.603Z,122.00
2018-02-09T15:45:23.410Z,119.17
2018-02-09T15:47:49.188Z,119.93
2018-02-09T15:50:14.966Z,110.70
2018-02-09T15:52:47.732Z,118.43
2018-02-09T15:55:13.522Z,108.12
2018-02-09T15:57:39.309Z,118.13
2018-02-09T16:00:05.133Z,107.37
2018-02-09T16:02:30.926Z,170.60
2018-02-09T16:04:56.698Z,161.97
2018-02-09T16:07:22.859Z,185.30
2018-02-09T16:09:48.638Z,201.32
2018-02-09T16:12:14.418Z,190.80
2018-02-09T16:14:40.217Z,166.53
2018-02-09T16:17:06.011Z,148.60
2018-02-09T16:19:31.792Z,146.07
2018-02-09T16:21:57.674Z,149.10
2018-02-09T16:24:23.449Z,142.30
2018-02-09T16:26:49.251Z,149.30
2018-02-09T16:29:15.046Z,158.57
2018-02-09T16:31:40.838Z,148.50
2018-02-09T16:34:06.619Z,150.57
2018-02-09T16:36:32.422Z,150.13
2018-02-09T16:38:58.199Z,158.43
2018-02-09T16:41:23.983Z,177.30
2018-02-09T16:43:49.782Z,164.60
2018-02-09T16:46:15.563Z,182.93
2018-02-09T16:48:41.342Z,172.97
2018-02-09T16:51:07.114Z,162.67
2018-02-09T16:53:32.924Z,162.10
2018-02-09T16:55:59.123Z,176.63
2018-02-09T16:58:24.906Z,176.35
2018-02-09T17:00:50.685Z,170.13
2018-02-09T17:03:16.575Z,170.13
2018-02-09T17:05:42.350Z,187.00
2018-02-09T17:08:08.132Z,190.30
2018-02-09T17:10:33.999Z,184.33
2018-02-09T17:12:59.783Z,192.50
2018-02-09T17:15:25.577Z,179.33
2018-02-09T17:17:51.392Z,190.60
2018-02-09T17:20:17.209Z,188.97
2018-02-09T17:22:42.981Z,169.53
2018-02-09T17:25:08.788Z,175.50
2018-02-09T17:27:34.566Z,183.53
2018-02-09T17:30:00.354Z,186.13
2018-02-09T17:32:26.395Z,191.77
2018-02-09T17:34:52.183Z,195.10
2018-02-09T17:37:17.993Z,190.20
2018-02-09T17:39:43.842Z,187.23
2018-02-09T17:42:09.631Z,189.00
2018-02-09T17:44:35.411Z,191.33
2018-02-09T17:47:01.527Z,193.47
2018-02-09T17:49:27.298Z,199.07
2018-02-09T17:51:53.074Z,181.47
2018-02-09T17:54:18.889Z,191.13
2018-02-09T17:56:44.671Z,190.13
2018-02-09T17:59:10.458Z,185.80
2018-02-09T18:01:36.246Z,191.57
2018-02-09T18:04:02.063Z,199.20
2018-02-09T18:06:27.877Z,186.23
2018-02-09T18:08:53.690Z,196.80
2018-02-09T18:11:19.480Z,193.80
2018-02-09T18:13:45.266Z,190.93
2018-02-09T18:16:11.086Z,181.60
2018-02-09T18:18:36.875Z,199.27
2018-02-09T18:21:02.694Z,200.07
2018-02-09T18:23:28.509Z,191.23
2018-02-09T18:25:54.293Z,200.53
2018-02-09T18:28:20.082Z,214.33
2018-02-09T18:30:45.907Z,207.90
2018-02-09T18:33:11.690Z,208.20
2018-02-09T18:35:37.509Z,191.70
2018-02-09T18:38:03.478Z,204.73
2018-02-09T18:40:29.300Z,200.43
2018-02-09T18:42:55.088Z,194.40
2018-02-09T18:45:21.246Z,199.83
2018-02-09T18:47:47.026Z,200.15
2018-02-09T18:50:12.801Z,204.57
2018-02-09T18:52:38.589Z,209.90
2018-02-09T18:55:04.374Z,189.50
2018-02-09T18:57:30.145Z,186.93
2018-02-09T18:59:55.948Z,196.00
2018-02-09T19:02:21.730Z,187.00
2018-02-09T19:04:47.517Z,207.27
2018-02-09T19:07:13.342Z,205.70
2018-02-09T19:09:39.124Z,213.70
2018-02-09T19:12:04.909Z,184.30
2018-02-09T19:14:30.858Z,209.80
2018-02-09T19:16:56.633Z,191.93
2018-02-09T19:19:22.427Z,207.10
2018-02-09T19:21:48.253Z,199.87
2018-02-09T19:24:14.026Z,223.80
2018-02-09T19:26:41.045Z,221.73
2018-02-09T19:29:06.862Z,190.93
2018-02-09T19:31:32.786Z,228.20
2018-02-09T19:33:58.582Z,208.20
2018-02-09T19:36:25.040Z,204.93
2018-02-09T19:38:50.826Z,204.70
2018-02-09T19:41:17.180Z,187.30
2018-02-09T19:43:43.007Z,202.65
2018-02-09T19:46:09.626Z,205.13
2018-02-09T19:48:35.419Z,213.55
2018-02-09T19:51:02.196Z,197.53
2018-02-09T19:53:27.991Z,217.35
2018-02-09T19:55:54.118Z,225.07
2018-02-09T19:58:20.306Z,215.98
2018-02-09T20:00:46.595Z,250.90
2018-02-09T20:03:12.385Z,230.90
2018-02-09T20:05:38.761Z,224.07
2018-02-09T20:08:04.548Z,243.27
2018-02-09T20:10:31.111Z,224.50
2018-02-09T20:12:56.955Z,256.87
2018-02-09T20:15:22.737Z,249.80
2018-02-09T20:17:48.655Z,232.00
2018-02-09T20:20:14.447Z,248.23
2018-02-09T20:22:40.242Z,244.00
2018-02-09T20:25:06.130Z,233.93
2018-02-09T20:27:31.907Z,271.13
2018-02-09T20:29:57.699Z,263.13
2018-02-09T20:32:23.502Z,235.80
2018-02-09T20:34:49.302Z,253.97
2018-02-09T20:37:15.111Z,279.10
2018-02-09T20:39:41.031Z,247.07
2018-02-09T20:42:06.828Z,254.03
2018-02-09T20:44:32.610Z,245.13
2018-02-09T20:46:58.410Z,233.23
2018-02-09T20:49:24.234Z,241.03
2018-02-09T20:51:50.059Z,249.07
2018-02-09T20:54:15.848Z,236.63
2018-02-09T20:56:41.932Z,233.33
2018-02-09T20:59:07.720Z,259.15
2018-02-09T21:01:33.603Z,233.90
2018-02-09T21:03:59.648Z,240.83
2018-02-09T21:06:25.455Z,315.15
2018-02-09T21:08:51.512Z,322.13
2018-02-09T21:11:17.602Z,310.30
2018-02-09T21:13:43.735Z,288.08
2018-02-09T21:16:09.593Z,300.75
2018-02-09T21:18:35.605Z,256.97
2018-02-09T21:21:01.488Z,258.55
2018-02-09T21:23:27.283Z,243.67
2018-02-09T21:25:53.347Z,241.80
2018-02-09T21:28:19.127Z,252.25
2018-02-09T21:30:45.103Z,240.30
2018-02-09T21:33:11.014Z,258.15
2018-02-09T21:35:37.250Z,241.57
2018-02-09T21:38:03.049Z,269.95
2018-02-09T21:40:28.833Z,244.10
2018-02-09T21:42:54.638Z,266.57
2018-02-09T21:45:20.438Z,247.30
2018-02-09T21:47:46.226Z,251.13
2018-02-09T21:50:12.002Z,255.47
2018-02-09T21:52:38.622Z,254.87
2018-02-09T21:55:04.427Z,250.80
2018-02-09T21:57:30.611Z,253.93
2018-02-09T21:59:56.475Z,260.65
2018-02-09T22:02:22.474Z,244.53
2018-02-09T22:04:48.265Z,228.00
2018-02-09T22:07:14.568Z,637.07
2018-02-09T22:09:40.341Z,396.80
2018-02-09T22:12:08.640Z,369.20
2018-02-09T22:14:34.472Z,274.05
2018-02-09T22:17:00.251Z,228.97
2018-02-09T22:19:26.030Z,207.17
2018-02-09T22:21:51.937Z,214.97
2018-02-09T22:24:17.747Z,192.07
2018-02-09T22:26:43.925Z,198.03
2018-02-09T22:29:09.724Z,194.60
2018-02-09T22:31:35.509Z,204.80
2018-02-09T22:34:01.290Z,188.37
2018-02-09T22:36:27.078Z,200.67
2018-02-09T22:38:52.922Z,186.77
2018-02-09T22:41:18.694Z,191.77
2018-02-09T22:43:44.856Z,192.27
2018-02-09T22:46:10.635Z,195.30
2018-02-09T22:48:36.406Z,227.63
2018-02-09T22:51:02.233Z,220.00
2018-02-09T22:53:28.066Z,219.70
2018-02-09T22:55:53.805Z,228.93
2018-02-09T22:58:19.606Z,223.73
2018-02-09T23:00:45.385Z,226.87
2018-02-09T23:03:11.704Z,233.97
2018-02-09T23:05:37.510Z,241.65
2018-02-09T23:08:03.960Z,230.53
2018-02-09T23:10:29.798Z,242.52
2018-02-09T23:12:56.108Z,232.37
2018-02-09T23:15:21.969Z,253.62
2018-02-09T23:17:48.134Z,241.97
2018-02-09T23:20:14.215Z,222.73
2018-02-09T23:22:40.611Z,228.77
2018-02-09T23:25:06.522Z,254.48
2018-02-09T23:27:32.454Z,247.40
2018-02-09T23:29:58.566Z,243.43
2018-02-09T23:32:24.347Z,253.37
2018-02-09T23:34:50.414Z,254.30
2018-02-09T23:37:16.193Z,253.55
2018-02-09T23:39:41.981Z,349.07
2018-02-09T23:42:08.545Z,409.83
2018-02-09T23:44:34.330Z,380.48
2018-02-09T23:47:01.047Z,348.03
2018-02-09T23:49:26.849Z,308.75
2018-02-09T23:51:53.433Z,326.40
2018-02-09T23:54:19.216Z,290.92
2018-02-09T23:56:46.174Z,274.70
2018-02-09T23:59:12.493Z,259.08
